Terminal Aerodrome Forecast
Issued by NWS

Home | Current Version | Previous Version | Text Only | Print | Product List | Glossary On
Versions: 1 2 3 4 5 6 7 8 9 10 11 12 13 14
000
FTUS45 KABQ 231737
TAFFMN
TAF
KFMN 231737Z 2318/2418 10006KT P6SM FEW150
     FM231900 27010KT P6SM FEW110
      TEMPO 2321/2401 28011G21KT SCT110
     FM240200 31009KT P6SM SCT110
     FM240800 09006KT P6SM FEW110=

USA.gov is the U.S. government's official web portal to all federal, state and local government web resources and services.